Time;durP1;ratioP1;P1;durP2;ratioP2;P2;SDS_P1;SDS_P2;PMS_P1;PMS_P2;Temp;Humidity;BMP_temperature;BMP_pressure;BME280_temperature;BME280_humidity;BME280_pressure;Samples;Min_cycle;Max_cycle;Signal;HPM_P1;HPM_P2
2022/04/14 00:02:19;;;;;;;31.58;19.48;;;;;;;;;;4907599;29;20028;-93
2022/04/14 00:04:45;;;;;;;28.60;14.02;;;;;;;;;;4924450;29;20128;-92
2022/04/14 00:10:52;;;;;;;14.93;9.95;;;;;;;;;;4924239;29;20039;-92
2022/04/14 00:13:18;;;;;;;12.55;8.10;;;;;;;;;;4904129;29;20045;-92
2022/04/14 00:15:44;;;;;;;12.68;6.93;;;;;;;;;;4904536;29;20033;-93
2022/04/14 00:18:10;;;;;;;12.45;6.35;;;;;;;;;;4907588;29;20064;-91
2022/04/14 00:20:36;;;;;;;12.07;6.93;;;;;;;;;;4923999;29;20315;-92
2022/04/14 00:26:06;;;;;;;12.43;6.88;;;;;;;;;;4924087;29;20053;-93
2022/04/14 00:28:32;;;;;;;10.38;7.10;;;;;;;;;;4924203;29;20107;-92
2022/04/14 00:30:59;;;;;;;9.23;6.13;;;;;;;;;;4924346;29;20123;-92
2022/04/14 00:33:26;;;;;;;12.65;6.90;;;;;;;;;;4923814;29;20024;-93
2022/04/14 00:35:52;;;;;;;13.15;8.82;;;;;;;;;;4923500;29;20028;-93
2022/04/14 00:38:18;;;;;;;14.80;9.85;;;;;;;;;;4923534;29;20068;-93
2022/04/14 00:40:44;;;;;;;17.90;10.45;;;;;;;;;;4923358;29;20043;-93
2022/04/14 00:43:10;;;;;;;16.63;8.50;;;;;;;;;;4923521;29;20032;-93
2022/04/14 00:45:37;;;;;;;12.57;7.90;;;;;;;;;;4923568;29;20028;-92
2022/04/14 00:48:03;;;;;;;12.77;7.32;;;;;;;;;;4906612;29;20119;-93
2022/04/14 00:50:29;;;;;;;15.02;7.93;;;;;;;;;;4923026;29;20037;-93
2022/04/14 00:53:32;;;;;;;17.55;8.13;;;;;;;;;;4923014;29;20028;-93
2022/04/14 00:55:58;;;;;;;14.18;8.23;;;;;;;;;;4923158;29;20060;-93
2022/04/14 00:58:25;;;;;;;15.23;8.15;;;;;;;;;;4903597;29;20475;-92
2022/04/14 01:00:52;;;;;;;17.00;10.48;;;;;;;;;;4916455;29;20427;-92
2022/04/14 01:03:18;;;;;;;22.02;12.55;;;;;;;;;;4922703;29;20035;-93
2022/04/14 01:05:45;;;;;;;27.45;14.13;;;;;;;;;;4906051;29;20020;-92
2022/04/14 01:08:13;;;;;;;29.70;15.02;;;;;;;;;;4923759;29;20318;-92
2022/04/14 01:10:40;;;;;;;24.90;12.90;;;;;;;;;;4903068;29;20116;-92
2022/04/14 01:13:06;;;;;;;23.33;12.05;;;;;;;;;;4918179;29;20059;-91
2022/04/14 01:15:33;;;;;;;20.92;11.60;;;;;;;;;;4906221;29;20028;-92
2022/04/14 01:17:59;;;;;;;23.80;12.52;;;;;;;;;;4922777;29;20039;-92
2022/04/14 01:20:25;;;;;;;24.55;14.35;;;;;;;;;;4922984;29;20035;-92
2022/04/14 01:22:55;;;;;;;33.55;18.15;;;;;;;;;;4902889;29;20037;-91
2022/04/14 01:25:21;;;;;;;30.52;16.75;;;;;;;;;;4904424;29;20036;-91
2022/04/14 01:27:50;;;;;;;22.55;13.38;;;;;;;;;;4921408;29;20036;-91
2022/04/14 01:30:16;;;;;;;22.02;12.20;;;;;;;;;;4922597;29;20032;-91
2022/04/14 01:32:42;;;;;;;25.13;12.90;;;;;;;;;;4902592;29;20044;-92
2022/04/14 01:35:08;;;;;;;27.15;14.02;;;;;;;;;;4887345;29;20039;-93
2022/04/14 01:37:34;;;;;;;24.40;14.13;;;;;;;;;;4922071;29;20032;-93
2022/04/14 01:40:00;;;;;;;29.63;16.48;;;;;;;;;;4922266;29;20084;-93
2022/04/14 01:42:26;;;;;;;32.40;17.48;;;;;;;;;;4922370;29;20035;-92
2022/04/14 01:44:52;;;;;;;31.88;16.90;;;;;;;;;;4922478;29;20116;-94
2022/04/14 01:47:18;;;;;;;32.08;16.42;;;;;;;;;;4922248;29;20024;-92
2022/04/14 01:49:45;;;;;;;27.80;15.05;;;;;;;;;;4922440;29;20032;-93
2022/04/14 01:52:11;;;;;;;32.50;15.30;;;;;;;;;;4902408;29;20032;-93
2022/04/14 01:54:37;;;;;;;29.88;16.33;;;;;;;;;;4921561;29;20482;-92
2022/04/14 01:57:03;;;;;;;30.73;17.48;;;;;;;;;;4921928;29;20055;-92
2022/04/14 01:59:29;;;;;;;31.83;18.13;;;;;;;;;;4922697;29;20032;-92
2022/04/14 02:01:55;;;;;;;37.40;19.83;;;;;;;;;;4905463;29;20075;-93
2022/04/14 02:04:21;;;;;;;39.92;19.23;;;;;;;;;;4902378;29;20029;-93
2022/04/14 02:06:47;;;;;;;35.55;20.25;;;;;;;;;;4897476;29;20330;-91
2022/04/14 02:09:13;;;;;;;32.55;18.90;;;;;;;;;;4905006;29;20111;-92
2022/04/14 02:11:40;;;;;;;39.92;22.80;;;;;;;;;;4922244;29;20068;-93
2022/04/14 02:14:06;;;;;;;33.30;19.17;;;;;;;;;;4904556;29;20032;-91
2022/04/14 02:16:32;;;;;;;36.20;22.13;;;;;;;;;;4905337;29;20450;-92
2022/04/14 02:18:58;;;;;;;35.47;22.63;;;;;;;;;;4905342;29;20055;-91
2022/04/14 02:21:24;;;;;;;33.67;19.52;;;;;;;;;;4922018;29;20490;-92
2022/04/14 02:23:50;;;;;;;26.60;14.57;;;;;;;;;;4921800;29;20024;-92
2022/04/14 02:26:16;;;;;;;21.58;14.10;;;;;;;;;;4922046;29;20020;-92
2022/04/14 02:28:42;;;;;;;22.55;14.00;;;;;;;;;;4922087;29;20048;-93
2022/04/14 02:31:08;;;;;;;21.88;12.45;;;;;;;;;;4921365;29;20323;-93
2022/04/14 02:33:35;;;;;;;22.85;14.85;;;;;;;;;;4905039;29;20055;-92
2022/04/14 02:36:01;;;;;;;24.92;15.60;;;;;;;;;;4921821;29;20054;-93
2022/04/14 02:44:34;;;;;;;29.52;17.88;;;;;;;;;;4921553;29;20071;-92
2022/04/14 02:47:00;;;;;;;29.85;18.55;;;;;;;;;;4904589;29;20036;-92
2022/04/14 02:49:26;;;;;;;31.35;19.02;;;;;;;;;;4921392;29;20107;-93
2022/04/14 02:51:52;;;;;;;27.38;16.17;;;;;;;;;;4904600;29;20043;-93
2022/04/14 02:54:39;;;;;;;27.48;16.20;;;;;;;;;;4901334;29;20028;-92
2022/04/14 02:57:06;;;;;;;21.80;14.02;;;;;;;;;;4917142;29;20430;-92
2022/04/14 02:59:32;;;;;;;20.00;12.07;;;;;;;;;;4904596;29;20084;-92
2022/04/14 03:01:58;;;;;;;21.65;12.32;;;;;;;;;;4920974;29;20036;-93
2022/04/14 03:04:24;;;;;;;25.52;17.75;;;;;;;;;;4921329;29;20340;-94
2022/04/14 03:06:51;;;;;;;23.88;15.95;;;;;;;;;;4921408;29;20304;-94
2022/04/14 03:09:17;;;;;;;24.15;14.85;;;;;;;;;;4921408;29;20028;-93
2022/04/14 03:11:43;;;;;;;22.77;14.75;;;;;;;;;;4900917;29;20048;-93
2022/04/14 03:14:09;;;;;;;29.63;19.45;;;;;;;;;;4902480;29;20430;-93
2022/04/14 03:16:35;;;;;;;24.90;18.42;;;;;;;;;;4911766;29;20043;-92
2022/04/14 03:19:01;;;;;;;31.67;18.60;;;;;;;;;;4920953;29;20043;-94
2022/04/14 03:21:28;;;;;;;20.08;13.88;;;;;;;;;;4921234;29;20123;-92
2022/04/14 03:24:31;;;;;;;26.08;13.88;;;;;;;;;;4920251;29;20035;-91
2022/04/14 03:26:56;;;;;;;;;;;;;;;;;;4904879;29;20032;-91
2022/04/14 03:29:23;;;;;;;26.88;16.23;;;;;;;;;;4908124;29;19911;-92
2022/04/14 03:31:49;;;;;;;34.83;17.83;;;;;;;;;;4924916;29;20032;-92
2022/04/14 03:34:15;;;;;;;36.80;19.70;;;;;;;;;;4924852;29;20028;-92
2022/04/14 03:36:41;;;;;;;33.60;19.85;;;;;;;;;;4924909;29;20330;-92
2022/04/14 03:39:07;;;;;;;35.67;18.60;;;;;;;;;;4924771;29;20028;-93
2022/04/14 03:41:33;;;;;;;33.97;17.95;;;;;;;;;;4925367;29;20060;-94
2022/04/14 03:44:00;;;;;;;31.80;17.13;;;;;;;;;;4914574;29;20088;-96
2022/04/14 03:46:27;;;;;;;41.38;19.38;;;;;;;;;;4931269;29;20028;-96
2022/04/14 03:48:58;;;;;;;32.03;19.15;;;;;;;;;;4903050;29;20040;-95
2022/04/14 03:51:25;;;;;;;39.28;20.52;;;;;;;;;;4934503;29;20035;-95
2022/04/14 03:53:52;;;;;;;41.00;21.40;;;;;;;;;;4907569;29;20024;-94
2022/04/14 03:56:18;;;;;;;38.55;20.73;;;;;;;;;;4924563;29;20040;-94
2022/04/14 03:58:44;;;;;;;42.03;20.20;;;;;;;;;;4925154;29;20035;-94
2022/04/14 04:01:10;;;;;;;36.03;21.08;;;;;;;;;;4907848;29;20028;-94
2022/04/14 04:03:36;;;;;;;35.78;20.10;;;;;;;;;;4924535;29;20053;-94
2022/04/14 04:06:02;;;;;;;45.53;26.13;;;;;;;;;;4907771;29;20020;-95
2022/04/14 04:08:28;;;;;;;43.83;27.38;;;;;;;;;;4924402;29;20035;-95
2022/04/14 04:10:54;;;;;;;44.03;27.88;;;;;;;;;;4907122;29;20028;-93
2022/04/14 04:13:21;;;;;;;48.50;29.52;;;;;;;;;;4907540;29;20028;-94
2022/04/14 04:15:47;;;;;;;45.55;27.88;;;;;;;;;;4907680;29;20414;-93
2022/04/14 04:18:13;;;;;;;52.38;27.95;;;;;;;;;;4924169;29;20025;-94
2022/04/14 04:20:39;;;;;;;44.55;26.90;;;;;;;;;;4924290;29;20032;-94
2022/04/14 04:23:05;;;;;;;36.13;21.10;;;;;;;;;;4907583;29;20066;-94
2022/04/14 04:25:31;;;;;;;37.17;21.98;;;;;;;;;;4924118;29;20044;-94
2022/04/14 04:27:58;;;;;;;31.95;19.35;;;;;;;;;;4907132;29;20033;-93
2022/04/14 04:30:24;;;;;;;29.98;18.40;;;;;;;;;;4923822;29;20399;-95
2022/04/14 04:32:50;;;;;;;27.88;17.95;;;;;;;;;;4907224;29;20126;-95
2022/04/14 04:35:16;;;;;;;33.00;17.77;;;;;;;;;;4923801;29;20032;-94
2022/04/14 04:37:42;;;;;;;31.52;17.42;;;;;;;;;;4906195;29;20063;-95
2022/04/14 04:40:09;;;;;;;38.53;16.17;;;;;;;;;;4907064;29;20371;-93
2022/04/14 04:42:35;;;;;;;31.20;18.08;;;;;;;;;;4923679;29;20194;-95
2022/04/14 04:45:01;;;;;;;38.78;19.70;;;;;;;;;;4907016;29;20035;-95
2022/04/14 04:47:27;;;;;;;38.72;20.08;;;;;;;;;;4923345;29;20028;-93
2022/04/14 04:49:53;;;;;;;30.40;16.42;;;;;;;;;;4906928;29;20123;-94
2022/04/14 04:52:19;;;;;;;21.10;13.20;;;;;;;;;;4923440;29;20032;-93
2022/04/14 04:54:46;;;;;;;31.88;18.25;;;;;;;;;;4906931;29;20059;-94
2022/04/14 04:57:12;;;;;;;30.67;17.55;;;;;;;;;;4923480;29;20419;-94
2022/04/14 04:59:38;;;;;;;30.25;18.85;;;;;;;;;;4923135;29;20032;-95
2022/04/14 05:02:04;;;;;;;28.65;15.30;;;;;;;;;;4923482;29;20028;-94
2022/04/14 05:04:30;;;;;;;22.90;13.48;;;;;;;;;;4922987;29;20020;-96
2022/04/14 05:06:56;;;;;;;24.77;13.52;;;;;;;;;;4923320;29;20028;-94
2022/04/14 05:09:24;;;;;;;20.52;12.95;;;;;;;;;;4906557;29;20020;-94
2022/04/14 05:11:50;;;;;;;23.73;12.30;;;;;;;;;;4906300;29;20052;-94
2022/04/14 05:14:16;;;;;;;21.23;12.07;;;;;;;;;;4923245;29;20323;-95
2022/04/14 05:16:42;;;;;;;21.02;12.30;;;;;;;;;;4923014;29;20028;-94
2022/04/14 05:19:08;;;;;;;23.70;13.82;;;;;;;;;;4923030;29;20032;-94
2022/04/14 05:21:34;;;;;;;29.20;14.02;;;;;;;;;;4923174;29;20047;-93
2022/04/14 05:24:00;;;;;;;93.47;29.23;;;;;;;;;;4922991;29;20067;-93
2022/04/14 05:26:27;;;;;;;120.22;32.83;;;;;;;;;;4906158;29;20031;-93
2022/04/14 05:28:53;;;;;;;84.55;29.70;;;;;;;;;;4922736;29;20039;-94
2022/04/14 05:31:21;;;;;;;100.07;30.90;;;;;;;;;;4922689;29;20024;-94
2022/04/14 05:33:48;;;;;;;115.63;34.85;;;;;;;;;;4922648;29;20108;-93
2022/04/14 05:36:14;;;;;;;88.97;30.05;;;;;;;;;;4922709;29;20024;-93
2022/04/14 05:38:40;;;;;;;118.95;35.05;;;;;;;;;;4922802;29;20024;-94
2022/04/14 05:41:08;;;;;;;66.90;24.48;;;;;;;;;;4905703;29;20036;-93
2022/04/14 05:43:34;;;;;;;31.42;15.30;;;;;;;;;;4922642;29;20072;-93
2022/04/14 05:46:03;;;;;;;27.60;13.77;;;;;;;;;;4922678;29;20024;-95
2022/04/14 05:48:29;;;;;;;18.98;12.07;;;;;;;;;;4921881;29;20322;-93
2022/04/14 05:50:56;;;;;;;23.70;13.50;;;;;;;;;;4922588;29;20058;-94
2022/04/14 05:53:29;;;;;;;22.70;13.15;;;;;;;;;;4922236;29;20035;-92
2022/04/14 05:55:55;;;;;;;23.20;12.63;;;;;;;;;;4922225;29;20186;-94
2022/04/14 05:58:21;;;;;;;20.75;13.00;;;;;;;;;;4922282;29;20068;-93
2022/04/14 06:00:47;;;;;;;20.33;12.35;;;;;;;;;;4922297;29;20036;-93
2022/04/14 06:03:13;;;;;;;24.30;13.23;;;;;;;;;;4922415;29;20035;-93
2022/04/14 06:05:40;;;;;;;19.35;12.15;;;;;;;;;;4922384;29;20024;-93
2022/04/14 06:08:12;;;;;;;25.15;12.15;;;;;;;;;;4922028;29;20122;-94
2022/04/14 06:10:38;;;;;;;22.38;12.45;;;;;;;;;;4922096;29;20032;-93
2022/04/14 06:13:04;;;;;;;21.15;12.88;;;;;;;;;;4921912;29;20052;-93
2022/04/14 06:15:31;;;;;;;20.48;11.90;;;;;;;;;;4921998;29;20024;-94
2022/04/14 06:17:57;;;;;;;20.05;12.13;;;;;;;;;;4922027;29;20024;-94
2022/04/14 06:20:23;;;;;;;19.98;12.80;;;;;;;;;;4905566;29;20032;-93
2022/04/14 06:22:49;;;;;;;22.70;12.10;;;;;;;;;;4921712;29;20047;-94
2022/04/14 06:25:22;;;;;;;20.13;12.38;;;;;;;;;;4905339;29;20020;-94
2022/04/14 06:27:49;;;;;;;22.50;11.75;;;;;;;;;;4921633;29;20330;-94
2022/04/14 06:30:15;;;;;;;21.13;12.35;;;;;;;;;;4905068;29;20119;-93
2022/04/14 06:32:42;;;;;;;22.15;13.02;;;;;;;;;;4904946;29;20300;-93
2022/04/14 06:35:09;;;;;;;24.23;12.73;;;;;;;;;;4921887;29;20024;-93
2022/04/14 06:37:36;;;;;;;25.30;14.10;;;;;;;;;;4905005;29;20034;-93
2022/04/14 06:40:03;;;;;;;23.05;13.57;;;;;;;;;;4921733;29;20028;-94
2022/04/14 06:42:30;;;;;;;20.95;13.70;;;;;;;;;;4904879;29;20036;-93
2022/04/14 06:44:59;;;;;;;21.75;13.43;;;;;;;;;;4921550;29;20032;-93
2022/04/14 06:47:26;;;;;;;23.25;15.15;;;;;;;;;;4921802;29;20032;-94
2022/04/14 06:49:52;;;;;;;27.85;14.65;;;;;;;;;;4921696;29;20032;-94
2022/04/14 06:52:18;;;;;;;20.13;12.77;;;;;;;;;;4921715;29;20039;-93
2022/04/14 06:54:44;;;;;;;18.58;11.77;;;;;;;;;;4921350;29;20028;-94
2022/04/14 06:57:10;;;;;;;18.33;11.63;;;;;;;;;;4904843;29;20028;-92
2022/04/14 06:59:36;;;;;;;19.17;12.13;;;;;;;;;;4904454;29;20441;-93
2022/04/14 07:02:03;;;;;;;19.13;11.68;;;;;;;;;;4921119;29;20035;-94
2022/04/14 07:04:29;;;;;;;16.55;11.07;;;;;;;;;;4905014;29;20030;-93
2022/04/14 07:06:55;;;;;;;16.15;10.73;;;;;;;;;;4921196;29;20024;-93
2022/04/14 08:10:16;;;;;;;18.58;4.90;;;;;;;;;;5116055;27;20789;-93
2022/04/14 08:12:42;;;;;;;8.25;3.90;;;;;;;;;;5116036;28;20413;-92
2022/04/14 08:15:10;;;;;;;5.10;4.00;;;;;;;;;;5114721;28;20308;-93
2022/04/14 08:17:37;;;;;;;6.85;4.15;;;;;;;;;;5115678;28;20074;-92
2022/04/14 08:20:05;;;;;;;6.07;2.83;;;;;;;;;;5114575;28;20127;-93
2022/04/14 08:22:43;;;;;;;4.65;2.72;;;;;;;;;;5115621;28;20028;-92
2022/04/14 08:25:10;;;;;;;4.22;2.40;;;;;;;;;;5115450;28;20114;-93
2022/04/14 08:27:36;;;;;;;4.80;3.03;;;;;;;;;;5115931;28;20046;-90
2022/04/14 08:30:03;;;;;;;4.78;2.53;;;;;;;;;;5115593;28;20409;-92
2022/04/14 08:32:29;;;;;;;5.10;3.15;;;;;;;;;;5116020;28;20028;-92
2022/04/14 08:34:56;;;;;;;3.45;2.50;;;;;;;;;;5115205;28;20031;-91
2022/04/14 08:37:22;;;;;;;4.97;2.70;;;;;;;;;;5115384;28;20020;-92
2022/04/14 08:39:50;;;;;;;2.83;2.17;;;;;;;;;;5114113;28;20027;-92
2022/04/14 08:42:20;;;;;;;4.20;2.45;;;;;;;;;;5115428;28;20027;-92
2022/04/14 08:44:50;;;;;;;3.78;2.60;;;;;;;;;;5114375;28;20063;-92
2022/04/14 08:47:16;;;;;;;6.72;3.25;;;;;;;;;;5114289;28;20040;-91
2022/04/14 08:49:44;;;;;;;5.93;3.33;;;;;;;;;;5115069;28;20028;-92
2022/04/14 08:52:15;;;;;;;5.80;3.63;;;;;;;;;;5115213;28;20016;-92
2022/04/14 08:54:44;;;;;;;9.52;3.97;;;;;;;;;;5117395;28;20080;-91
2022/04/14 08:57:13;;;;;;;8.65;4.30;;;;;;;;;;5119187;28;20016;-91
2022/04/14 08:59:44;;;;;;;11.07;5.05;;;;;;;;;;5114897;28;20317;-93
2022/04/14 09:02:17;;;;;;;6.80;4.53;;;;;;;;;;5115093;28;20028;-92
2022/04/14 09:04:44;;;;;;;8.65;4.13;;;;;;;;;;5114636;28;20024;-92
2022/04/14 09:07:12;;;;;;;8.80;4.80;;;;;;;;;;5114922;28;20024;-92
2022/04/14 09:09:38;;;;;;;25.38;15.48;;;;;;;;;;5113374;28;20044;-92
2022/04/14 09:12:05;;;;;;;10.10;5.10;;;;;;;;;;5114497;28;20067;-92
2022/04/14 09:14:34;;;;;;;7.35;4.03;;;;;;;;;;5113457;28;20024;-92
2022/04/14 09:17:01;;;;;;;6.75;4.10;;;;;;;;;;5114458;28;20024;-93
2022/04/14 09:19:30;;;;;;;7.15;4.00;;;;;;;;;;5112359;28;20024;-92
2022/04/14 09:21:59;;;;;;;8.50;4.47;;;;;;;;;;5100854;28;20071;-93
2022/04/14 09:24:40;;;;;;;8.35;4.38;;;;;;;;;;5099707;28;20115;-93
2022/04/14 09:27:07;;;;;;;6.07;3.25;;;;;;;;;;5100628;28;20111;-92
2022/04/14 09:29:33;;;;;;;8.90;4.40;;;;;;;;;;5099635;28;20028;-93
2022/04/14 09:31:59;;;;;;;6.57;3.92;;;;;;;;;;5099674;28;20020;-93
2022/04/14 09:34:42;;;;;;;7.25;3.15;;;;;;;;;;5100757;28;20016;-93
2022/04/14 09:37:09;;;;;;;5.72;3.30;;;;;;;;;;5100405;28;20025;-92
2022/04/14 09:39:50;;;;;;;3.78;2.75;;;;;;;;;;5099806;28;20113;-92
2022/04/14 09:42:16;;;;;;;6.57;2.90;;;;;;;;;;5099498;28;20058;-93
2022/04/14 09:44:42;;;;;;;7.15;3.15;;;;;;;;;;5100318;28;20108;-92
2022/04/14 09:47:08;;;;;;;4.50;2.30;;;;;;;;;;5100306;28;20111;-92
2022/04/14 09:49:40;;;;;;;7.82;4.00;;;;;;;;;;5099062;28;20032;-93
2022/04/14 09:52:10;;;;;;;7.53;3.63;;;;;;;;;;5099135;28;20020;-92
2022/04/14 09:54:38;;;;;;;9.82;4.20;;;;;;;;;;5100459;28;20043;-94
2022/04/14 09:57:04;;;;;;;9.27;3.80;;;;;;;;;;5100274;28;20016;-93
2022/04/14 09:59:30;;;;;;;10.38;4.75;;;;;;;;;;5100280;28;20050;-93
2022/04/14 10:02:12;;;;;;;8.05;3.75;;;;;;;;;;5100300;28;20028;-92
2022/04/14 10:04:42;;;;;;;9.30;4.47;;;;;;;;;;5100078;28;20020;-90
2022/04/14 10:07:12;;;;;;;15.82;9.02;;;;;;;;;;5101085;28;20024;-94
2022/04/14 10:09:42;;;;;;;7.47;4.15;;;;;;;;;;5099018;28;20051;-94
2022/04/14 10:12:20;;;;;;;7.47;3.05;;;;;;;;;;5100000;28;20027;-93
2022/04/14 10:15:02;;;;;;;5.55;3.35;;;;;;;;;;5098967;28;20047;-93
2022/04/14 10:17:28;;;;;;;;;;;;;;;;;;5100132;28;20020;-93
2022/04/14 10:19:54;;;;;;;6.85;3.67;;;;;;;;;;5099723;28;19900;-91
2022/04/14 10:22:24;;;;;;;11.10;6.22;;;;;;;;;;5100359;28;20079;-89
2022/04/14 10:24:53;;;;;;;7.68;4.20;;;;;;;;;;5099100;28;20082;-91
2022/04/14 10:27:19;;;;;;;30.73;19.55;;;;;;;;;;5098693;28;20333;-91
2022/04/14 10:29:47;;;;;;;39.17;23.23;;;;;;;;;;5098252;28;20024;-91
2022/04/14 10:32:14;;;;;;;10.43;6.70;;;;;;;;;;5098577;28;20116;-90
2022/04/14 10:34:41;;;;;;;9.18;4.32;;;;;;;;;;5098665;28;20024;-93
2022/04/14 10:37:08;;;;;;;3.20;2.30;;;;;;;;;;5098721;28;20305;-93
2022/04/14 10:39:38;;;;;;;5.40;2.60;;;;;;;;;;5098459;28;20142;-93
2022/04/14 10:42:06;;;;;;;4.00;2.42;;;;;;;;;;5098529;28;20077;-93
2022/04/14 10:44:48;;;;;;;5.07;2.42;;;;;;;;;;5099508;28;20062;-93
2022/04/14 10:47:34;;;;;;;8.82;5.82;;;;;;;;;;5099459;28;20417;-92
2022/04/14 10:50:00;;;;;;;8.98;3.03;;;;;;;;;;5104502;28;20073;-93
2022/04/14 10:52:28;;;;;;;5.90;3.03;;;;;;;;;;5099073;28;20103;-93
2022/04/14 10:54:57;;;;;;;4.15;2.78;;;;;;;;;;5099186;28;20149;-93
2022/04/14 10:57:39;;;;;;;8.23;3.00;;;;;;;;;;5098195;28;20050;-93
2022/04/14 11:00:21;;;;;;;6.85;3.47;;;;;;;;;;5098853;28;20038;-91
2022/04/14 11:03:04;;;;;;;7.07;3.00;;;;;;;;;;5098917;28;20024;-93
2022/04/14 11:05:42;;;;;;;6.45;3.47;;;;;;;;;;5098936;28;20032;-93
2022/04/14 11:08:27;;;;;;;5.93;3.13;;;;;;;;;;5097795;28;20449;-93
2022/04/14 11:11:08;;;;;;;6.75;3.28;;;;;;;;;;5097621;28;20051;-93
2022/04/14 11:13:53;;;;;;;7.10;3.45;;;;;;;;;;5098776;28;20036;-93
2022/04/14 11:16:38;;;;;;;4.97;3.47;;;;;;;;;;5097842;28;20027;-93
2022/04/14 11:19:19;;;;;;;8.73;2.95;;;;;;;;;;5098717;28;20052;-92
2022/04/14 11:22:01;;;;;;;4.97;2.92;;;;;;;;;;5098847;28;20020;-93
2022/04/14 11:24:34;;;;;;;4.68;2.90;;;;;;;;;;5098490;28;20024;-93
2022/04/14 11:27:12;;;;;;;4.78;3.05;;;;;;;;;;5098211;28;20035;-93
2022/04/14 11:29:39;;;;;;;5.93;3.13;;;;;;;;;;5098612;28;20028;-94
2022/04/14 11:32:05;;;;;;;6.93;2.28;;;;;;;;;;5098750;28;20020;-92
2022/04/14 11:34:32;;;;;;;5.18;2.58;;;;;;;;;;5098326;28;20020;-94
2022/04/14 11:37:01;;;;;;;4.93;2.70;;;;;;;;;;5098269;28;20024;-92
2022/04/14 11:39:27;;;;;;;7.30;3.42;;;;;;;;;;5098597;28;20389;-95
2022/04/14 11:41:54;;;;;;;4.28;2.60;;;;;;;;;;5097347;28;20039;-93
2022/04/14 11:44:21;;;;;;;4.60;2.70;;;;;;;;;;5098027;28;20053;-93
2022/04/14 11:46:47;;;;;;;3.55;2.40;;;;;;;;;;5098101;28;20020;-94
2022/04/14 11:49:15;;;;;;;8.25;3.03;;;;;;;;;;5098011;28;20024;-93
2022/04/14 11:51:48;;;;;;;5.10;2.58;;;;;;;;;;5098191;28;20024;-93
2022/04/14 11:54:20;;;;;;;5.93;2.63;;;;;;;;;;5098027;28;20020;-94
2022/04/14 11:56:50;;;;;;;6.80;2.90;;;;;;;;;;5097119;28;20044;-92
2022/04/14 11:59:20;;;;;;;5.93;3.45;;;;;;;;;;5097883;28;20040;-93
2022/04/14 12:01:50;;;;;;;6.93;3.05;;;;;;;;;;5098008;28;20111;-94
2022/04/14 12:04:16;;;;;;;6.03;2.83;;;;;;;;;;5098106;28;20046;-92
2022/04/14 12:06:55;;;;;;;4.97;2.75;;;;;;;;;;5097704;28;20073;-93
2022/04/14 12:09:24;;;;;;;5.40;3.20;;;;;;;;;;5097689;28;20055;-93
2022/04/14 12:11:50;;;;;;;5.05;2.58;;;;;;;;;;5098043;28;20333;-93
2022/04/14 12:14:17;;;;;;;6.15;3.22;;;;;;;;;;5097962;28;20283;-93
2022/04/14 12:16:50;;;;;;;5.20;2.92;;;;;;;;;;5097669;28;20016;-92
2022/04/14 12:19:16;;;;;;;8.20;2.97;;;;;;;;;;5097629;28;20065;-94
2022/04/14 12:21:42;;;;;;;5.03;2.78;;;;;;;;;;5097819;28;20103;-93
2022/04/14 12:24:08;;;;;;;5.80;3.30;;;;;;;;;;5096886;28;20067;-94
2022/04/14 12:26:37;;;;;;;5.40;3.22;;;;;;;;;;5097766;28;20032;-93
2022/04/14 12:29:08;;;;;;;7.05;3.78;;;;;;;;;;5097643;28;20471;-93
2022/04/14 12:31:34;;;;;;;6.05;3.20;;;;;;;;;;5097127;28;20035;-94
2022/04/14 12:34:01;;;;;;;4.03;2.65;;;;;;;;;;5096627;28;20016;-94
2022/04/14 12:36:34;;;;;;;5.47;3.50;;;;;;;;;;5097549;28;20024;-93
2022/04/14 12:39:00;;;;;;;9.35;2.75;;;;;;;;;;5096991;28;20028;-94
2022/04/14 12:41:33;;;;;;;7.35;3.20;;;;;;;;;;5098691;28;20485;-93
2022/04/14 12:43:59;;;;;;;5.30;3.75;;;;;;;;;;5098540;28;20074;-93
2022/04/14 12:46:26;;;;;;;10.63;3.30;;;;;;;;;;5097819;28;20024;-93
2022/04/14 12:49:08;;;;;;;4.97;3.17;;;;;;;;;;5097457;28;20103;-93
2022/04/14 12:51:36;;;;;;;8.45;4.45;;;;;;;;;;5097687;28;20023;-93
2022/04/14 12:54:02;;;;;;;6.95;3.13;;;;;;;;;;5097361;28;20321;-93
2022/04/14 12:56:29;;;;;;;4.40;2.78;;;;;;;;;;5100147;28;20314;-94
2022/04/14 12:59:14;;;;;;;6.18;3.10;;;;;;;;;;5101213;28;20024;-94
2022/04/14 13:01:44;;;;;;;8.13;2.83;;;;;;;;;;5100360;28;20114;-90
2022/04/14 13:04:10;;;;;;;4.97;2.75;;;;;;;;;;5101541;28;20032;-94
2022/04/14 13:06:39;;;;;;;4.97;2.80;;;;;;;;;;5101195;28;20028;-92
2022/04/14 13:09:17;;;;;;;4.35;3.00;;;;;;;;;;5100476;28;20361;-91
2022/04/14 13:11:48;;;;;;;5.40;2.92;;;;;;;;;;5101013;28;20040;-92
2022/04/14 13:14:20;;;;;;;6.18;3.05;;;;;;;;;;5100849;28;20020;-92
2022/04/14 13:16:46;;;;;;;6.60;2.60;;;;;;;;;;5101178;28;20046;-92
2022/04/14 13:19:13;;;;;;;5.00;2.40;;;;;;;;;;5101141;28;20057;-92
2022/04/14 17:20:19;;;;;;;14.15;5.80;;;;;;;;;;5081835;27;20697;-95
2022/04/14 17:25:30;;;;;;;16.85;4.60;;;;;;;;;;5083898;28;20028;-96
2022/04/14 17:27:56;;;;;;;17.67;6.40;;;;;;;;;;5079300;28;20025;-96
2022/04/14 17:30:23;;;;;;;12.30;4.70;;;;;;;;;;5076607;28;20052;-96
2022/04/14 17:32:49;;;;;;;18.63;4.70;;;;;;;;;;5077159;28;20092;-96
2022/04/14 17:35:15;;;;;;;27.10;5.25;;;;;;;;;;5077875;28;20025;-95
2022/04/14 17:37:41;;;;;;;24.23;5.32;;;;;;;;;;5078333;28;20052;-96
2022/04/14 17:40:08;;;;;;;15.63;6.30;;;;;;;;;;5077202;28;20024;-96
2022/04/14 17:42:35;;;;;;;10.40;4.57;;;;;;;;;;5081648;28;20029;-96
2022/04/14 17:45:02;;;;;;;10.00;4.80;;;;;;;;;;5078185;28;20017;-96
2022/04/14 17:47:30;;;;;;;15.40;4.63;;;;;;;;;;5082171;28;20021;-95
2022/04/14 17:49:57;;;;;;;14.93;4.65;;;;;;;;;;5084923;28;20029;-96
2022/04/14 17:52:24;;;;;;;17.08;6.95;;;;;;;;;;5068203;28;20028;-96
2022/04/14 17:54:54;;;;;;;17.60;7.00;;;;;;;;;;5084155;23;20046;-96
2022/04/14 17:57:20;;;;;;;15.15;6.25;;;;;;;;;;5064309;28;20029;-96
2022/04/14 17:59:46;;;;;;;16.33;6.22;;;;;;;;;;5064735;28;20031;-95
2022/04/14 18:02:13;;;;;;;12.32;6.03;;;;;;;;;;5057102;28;20037;-96
2022/04/14 18:04:42;;;;;;;20.83;5.88;;;;;;;;;;5059087;28;20040;-96
2022/04/14 18:07:08;;;;;;;15.75;6.07;;;;;;;;;;5059726;28;20205;-96
2022/04/14 18:09:35;;;;;;;13.38;7.20;;;;;;;;;;5081397;28;20025;-96
2022/04/14 18:12:02;;;;;;;17.83;6.85;;;;;;;;;;5084141;28;20024;-96
2022/04/14 18:14:30;;;;;;;19.42;6.72;;;;;;;;;;5084270;28;20033;-96
2022/04/14 18:16:56;;;;;;;27.50;9.50;;;;;;;;;;5083499;28;20052;-96
2022/04/14 18:19:22;;;;;;;100.40;35.35;;;;;;;;;;5077762;28;20025;-95
2022/04/14 18:21:48;;;;;;;190.15;73.65;;;;;;;;;;5067628;28;20039;-96
2022/04/14 18:24:15;;;;;;;185.88;75.70;;;;;;;;;;5067331;28;20029;-96
2022/04/14 18:26:41;;;;;;;167.00;67.30;;;;;;;;;;5069654;28;20060;-96
2022/04/14 18:29:26;;;;;;;182.52;77.43;;;;;;;;;;5068421;28;20364;-96
2022/04/14 18:31:53;;;;;;;160.32;66.63;;;;;;;;;;5068142;28;20074;-96
2022/04/14 18:34:20;;;;;;;142.98;55.28;;;;;;;;;;5065592;28;20105;-96
2022/04/14 18:36:46;;;;;;;139.40;55.28;;;;;;;;;;5066056;28;20431;-95
2022/04/14 18:39:13;;;;;;;117.75;48.17;;;;;;;;;;5065840;28;20025;-96
2022/04/14 18:41:39;;;;;;;106.60;47.17;;;;;;;;;;5063749;28;20039;-96
2022/04/14 18:44:06;;;;;;;96.13;44.78;;;;;;;;;;5067116;28;20025;-96
2022/04/14 18:46:33;;;;;;;89.45;43.80;;;;;;;;;;5068576;28;20112;-96
2022/04/14 18:49:00;;;;;;;102.70;49.85;;;;;;;;;;5065972;28;20032;-96
2022/04/14 18:51:26;;;;;;;106.78;51.20;;;;;;;;;;5067158;28;20017;-96
2022/04/14 18:53:52;;;;;;;101.57;50.70;;;;;;;;;;5069230;28;20052;-96
2022/04/14 18:56:19;;;;;;;95.78;50.58;;;;;;;;;;5084321;22;20049;-95
2022/04/14 18:58:45;;;;;;;109.57;54.55;;;;;;;;;;5088916;28;20016;-94
2022/04/14 19:01:11;;;;;;;110.55;57.05;;;;;;;;;;5099883;28;20046;-92
2022/04/14 19:03:37;;;;;;;130.05;64.47;;;;;;;;;;5099716;28;20082;-93
2022/04/14 19:06:06;;;;;;;168.35;76.00;;;;;;;;;;5082141;28;20031;-94
2022/04/14 19:08:32;;;;;;;176.93;82.18;;;;;;;;;;5108739;28;20032;-94
2022/04/14 19:10:58;;;;;;;193.73;90.05;;;;;;;;;;5120097;28;20047;-94
2022/04/14 19:13:25;;;;;;;179.50;86.43;;;;;;;;;;5120315;28;20043;-93
2022/04/14 19:15:51;;;;;;;155.02;79.60;;;;;;;;;;5119980;28;20023;-94
2022/04/14 19:18:17;;;;;;;163.30;79.05;;;;;;;;;;5120131;28;20020;-94
2022/04/14 19:20:44;;;;;;;163.98;77.22;;;;;;;;;;5119950;28;20106;-94
2022/04/14 19:23:10;;;;;;;161.90;79.18;;;;;;;;;;5119841;28;20028;-93
2022/04/14 19:25:36;;;;;;;160.40;80.38;;;;;;;;;;5128917;27;20035;-94
2022/04/14 19:28:03;;;;;;;147.88;73.68;;;;;;;;;;5121961;27;20031;-92
2022/04/14 19:30:29;;;;;;;139.52;72.53;;;;;;;;;;5140347;27;20015;-94
2022/04/14 19:32:55;;;;;;;137.35;67.95;;;;;;;;;;5139274;27;20026;-93
2022/04/14 19:35:21;;;;;;;130.73;66.07;;;;;;;;;;5140384;27;20035;-94
2022/04/14 19:37:47;;;;;;;126.50;64.45;;;;;;;;;;5140256;27;20027;-93
2022/04/14 19:40:14;;;;;;;123.90;63.55;;;;;;;;;;5140083;27;20019;-92
2022/04/14 19:42:40;;;;;;;124.22;64.03;;;;;;;;;;5140122;27;20332;-93
2022/04/14 19:45:06;;;;;;;115.63;63.83;;;;;;;;;;5125705;27;20032;-94
2022/04/14 19:47:34;;;;;;;122.93;65.68;;;;;;;;;;5101594;28;20023;-92